Spruce Grove, Canada
Current Conditions -  °F | °C
As of 7:00 PM on Friday 21 Nov 2014 (Local Time) from CWSE Reporting Station
Broken Clouds Broken Clouds  
Wind Chill: 27°   Ceiling: 600
Heat Index: 33°   Visibility: 15mi
Dew Point: 33°   Wind: 7mph
Humidity: 99%   Direction: 70°ENE
Pressure: 29.4"   Gusts: NA
Location:  53.54°N, 113.9°W
Report Text: CWSE 220200Z COR 07006KT 15SM BKN006 00/00 A2940 RMK SLP975 LAST OBS/NEXT 221100Z T00050003 WSI/SWOB
Loading
Personal Weather Stations






























Interactive Weather Map New forecast layout! Learn more

10-Day Weather Forecast

Advertisements
Track Severe Weather on mobile